Airport View

Enter AWOS ICAO identifier for current METAR.

ex. KFNL

KEVW 290253Z AUTO 02007KT 10SM CLR 11/M09 A3046 RMK AO2 SLP273 T01061094 53003

29 Sep 2020 03:16

Frequency: 120.0

Phone: 307-789-0585

Other Area AWOS: KFBR - KEMM - KHIF - KOGD

TAF KEVW 282346Z 2900/2924 01007KT P6SM SKC FM290300 14005KT P6SM SKC FM291800 28012G20KT P6SM SKC